createdAt,value
2018-11-10T00:02:18.954Z,9.45
2018-11-10T00:04:46.468Z,9.51
2018-11-10T00:07:13.998Z,9.45
2018-11-10T00:09:41.539Z,9.42
2018-11-10T00:12:09.011Z,9.39
2018-11-10T00:14:36.563Z,9.35
2018-11-10T00:17:04.439Z,9.33
2018-11-10T00:19:32.033Z,9.26
2018-11-10T00:21:59.666Z,9.24
2018-11-10T00:24:27.321Z,9.16
2018-11-10T00:26:54.876Z,9.12
2018-11-10T00:29:22.446Z,9.11
2018-11-10T00:31:50.207Z,9.10
2018-11-10T00:34:17.763Z,9.16
2018-11-10T00:36:45.445Z,9.18
2018-11-10T00:39:12.964Z,9.17
2018-11-10T00:41:40.435Z,9.11
2018-11-10T00:44:08.134Z,9.00
2018-11-10T00:46:35.736Z,8.94
2018-11-10T00:49:03.318Z,9.03
2018-11-10T00:51:30.897Z,9.04
2018-11-10T00:53:58.330Z,9.12
2018-11-10T00:56:25.807Z,8.98
2018-11-10T00:58:53.499Z,9.04
2018-11-10T01:01:21.084Z,8.98
2018-11-10T01:03:48.524Z,8.99
2018-11-10T01:06:16.271Z,8.88
2018-11-10T01:08:43.681Z,8.79
2018-11-10T01:11:11.107Z,8.90
2018-11-10T01:13:38.715Z,8.85
2018-11-10T01:16:06.356Z,8.73
2018-11-10T01:18:33.833Z,8.77
2018-11-10T01:21:01.664Z,8.76
2018-11-10T01:23:29.297Z,8.87
2018-11-10T01:25:56.729Z,8.71
2018-11-10T01:28:24.201Z,8.64
2018-11-10T01:30:51.624Z,8.58
2018-11-10T01:33:19.058Z,8.66
2018-11-10T01:35:46.663Z,8.66
2018-11-10T01:38:14.113Z,8.68
2018-11-10T01:40:41.758Z,8.70
2018-11-10T01:43:09.290Z,8.74
2018-11-10T01:45:36.752Z,8.66
2018-11-10T01:48:04.861Z,8.51
2018-11-10T01:50:32.386Z,8.36
2018-11-10T01:52:59.801Z,8.36
2018-11-10T01:55:27.214Z,8.30
2018-11-10T01:57:54.784Z,8.34
2018-11-10T02:00:22.271Z,8.42
2018-11-10T02:02:49.879Z,8.44
2018-11-10T02:05:17.754Z,8.50
2018-11-10T02:07:45.209Z,8.65
2018-11-10T02:10:13.230Z,8.66
2018-11-10T02:12:41.366Z,8.69
2018-11-10T02:15:12.601Z,8.71
2018-11-10T02:17:40.121Z,8.75
2018-11-10T02:20:08.818Z,8.96
2018-11-10T02:22:36.493Z,9.08
2018-11-10T02:25:04.082Z,9.05
2018-11-10T02:27:31.855Z,9.01
2018-11-10T02:29:59.509Z,9.07
2018-11-10T02:32:27.017Z,9.18
2018-11-10T02:34:54.449Z,9.15
2018-11-10T02:37:21.945Z,9.18
2018-11-10T02:39:49.449Z,9.15
2018-11-10T02:42:16.969Z,9.26
2018-11-10T02:44:44.461Z,9.27
2018-11-10T02:47:11.927Z,9.28
2018-11-10T02:49:39.527Z,9.33
2018-11-10T02:52:07.101Z,9.37
2018-11-10T02:54:34.573Z,9.35
2018-11-10T02:57:02.181Z,9.36
2018-11-10T02:59:29.703Z,9.40
2018-11-10T03:01:57.155Z,9.57
2018-11-10T03:04:24.673Z,9.50
2018-11-10T03:06:52.119Z,9.49
2018-11-10T03:09:19.587Z,9.47
2018-11-10T03:11:47.136Z,9.48
2018-11-10T03:14:14.554Z,9.50
2018-11-10T03:16:42.175Z,9.56
2018-11-10T03:19:10.103Z,9.58
2018-11-10T03:21:38.133Z,9.65
2018-11-10T03:24:06.003Z,9.58
2018-11-10T03:26:33.837Z,9.57
2018-11-10T03:29:01.670Z,9.60
2018-11-10T03:31:29.629Z,9.60
2018-11-10T03:33:57.413Z,9.62
2018-11-10T03:36:25.115Z,9.67
2018-11-10T03:38:52.855Z,9.75
2018-11-10T03:41:20.789Z,9.73
2018-11-10T03:43:48.501Z,9.74
2018-11-10T03:46:16.095Z,9.76
2018-11-10T03:48:43.744Z,9.79
2018-11-10T03:51:11.536Z,9.82
2018-11-10T03:53:39.686Z,9.73
2018-11-10T03:56:07.663Z,9.68
2018-11-10T03:58:35.320Z,9.69
2018-11-10T04:01:03.232Z,9.65
2018-11-10T04:03:30.650Z,9.67
2018-11-10T04:05:58.132Z,9.71
2018-11-10T04:08:25.653Z,9.78
2018-11-10T04:10:53.150Z,9.80
2018-11-10T04:13:20.621Z,9.77
2018-11-10T04:15:48.085Z,9.79
2018-11-10T04:18:15.851Z,9.72
2018-11-10T04:20:43.558Z,9.71
2018-11-10T04:23:11.099Z,9.76
2018-11-10T04:25:38.581Z,9.75
2018-11-10T04:28:06.038Z,9.80
2018-11-10T04:30:33.577Z,9.93
2018-11-10T04:33:01.022Z,9.97
2018-11-10T04:35:28.446Z,9.91
2018-11-10T04:37:56.046Z,9.79
2018-11-10T04:40:23.595Z,9.73
2018-11-10T04:42:51.134Z,9.70
2018-11-10T04:45:18.701Z,9.68
2018-11-10T04:47:46.145Z,9.67
2018-11-10T04:50:13.574Z,9.66
2018-11-10T04:52:41.463Z,9.78
2018-11-10T04:55:10.095Z,9.77
2018-11-10T04:57:37.839Z,9.77
2018-11-10T05:00:07.540Z,9.85
2018-11-10T05:02:35.042Z,9.84
2018-11-10T05:05:02.487Z,9.85
2018-11-10T05:07:29.930Z,9.88
2018-11-10T05:09:57.343Z,9.90
2018-11-10T05:12:24.940Z,9.89
2018-11-10T05:14:52.438Z,9.88
2018-11-10T05:17:19.954Z,9.83
2018-11-10T05:19:47.394Z,9.77
2018-11-10T05:22:15.006Z,9.77
2018-11-10T05:24:42.550Z,9.81
2018-11-10T05:27:10.116Z,9.82
2018-11-10T05:29:37.578Z,9.75
2018-11-10T05:32:05.272Z,9.70
2018-11-10T05:34:32.754Z,9.81
2018-11-10T05:37:00.238Z,9.80
2018-11-10T05:39:27.722Z,9.81
2018-11-10T05:41:55.246Z,9.87
2018-11-10T05:44:22.688Z,9.90
2018-11-10T05:46:50.392Z,9.88
2018-11-10T05:49:17.906Z,9.83
2018-11-10T05:51:45.446Z,9.73
2018-11-10T05:54:13.022Z,9.66
2018-11-10T05:56:40.481Z,9.64
2018-11-10T05:59:07.884Z,9.69
2018-11-10T06:01:35.434Z,9.71
2018-11-10T06:04:03.048Z,9.80
2018-11-10T06:06:30.614Z,9.70
2018-11-10T06:08:58.170Z,9.63
2018-11-10T06:11:25.626Z,9.57
2018-11-10T06:13:53.046Z,9.31
2018-11-10T06:16:20.542Z,9.18
2018-11-10T06:18:48.203Z,9.03
2018-11-10T06:21:15.547Z,8.99
2018-11-10T06:23:43.125Z,8.99
2018-11-10T06:26:10.675Z,8.97
2018-11-10T06:28:38.116Z,8.87
2018-11-10T06:31:06.874Z,8.83
2018-11-10T06:33:34.319Z,8.85
2018-11-10T06:36:01.831Z,8.83
2018-11-10T06:38:29.290Z,8.95
2018-11-10T06:40:56.789Z,8.89
2018-11-10T06:43:24.200Z,8.90
2018-11-10T06:45:51.770Z,8.86
2018-11-10T06:48:19.226Z,8.83
2018-11-10T06:50:46.671Z,8.89
2018-11-10T06:53:14.274Z,8.90
2018-11-10T06:55:41.730Z,8.89
2018-11-10T06:58:09.191Z,8.88
2018-11-10T07:00:36.702Z,8.90
2018-11-10T07:03:04.386Z,8.94
2018-11-10T07:05:31.923Z,8.94
2018-11-10T07:07:59.371Z,8.95
2018-11-10T07:10:26.858Z,8.98
2018-11-10T07:12:54.266Z,8.95
2018-11-10T07:15:21.900Z,8.97
2018-11-10T07:17:49.478Z,9.07
2018-11-10T07:20:16.882Z,8.97
2018-11-10T07:22:44.315Z,9.01
2018-11-10T07:25:11.818Z,9.08
2018-11-10T07:27:39.218Z,9.06
2018-11-10T07:30:10.695Z,9.06
2018-11-10T07:32:40.111Z,9.07
2018-11-10T07:35:08.483Z,9.14
2018-11-10T07:37:36.041Z,9.28
2018-11-10T07:40:03.883Z,9.34
2018-11-10T07:42:31.461Z,9.35
2018-11-10T07:44:58.932Z,9.36
2018-11-10T07:47:26.442Z,9.44
2018-11-10T07:49:53.909Z,9.38
2018-11-10T07:52:21.482Z,9.39
2018-11-10T07:54:48.940Z,9.38
2018-11-10T07:57:16.345Z,9.41
2018-11-10T07:59:43.991Z,9.43
2018-11-10T08:02:11.554Z,9.52
2018-11-10T08:04:39.346Z,9.59
2018-11-10T08:07:07.246Z,9.65
2018-11-10T08:09:34.842Z,9.78
2018-11-10T08:12:02.519Z,9.80
2018-11-10T08:14:29.899Z,9.83
2018-11-10T08:16:57.437Z,9.89
2018-11-10T08:19:24.889Z,9.93
2018-11-10T08:21:52.550Z,9.99
2018-11-10T08:24:19.995Z,10.04
2018-11-10T08:26:47.538Z,10.00
2018-11-10T08:29:15.002Z,10.07
2018-11-10T08:31:42.441Z,10.19
2018-11-10T08:34:09.944Z,10.26
2018-11-10T08:36:37.489Z,10.27
2018-11-10T08:39:07.126Z,10.21
2018-11-10T08:41:35.048Z,10.24
2018-11-10T08:44:02.694Z,10.29
2018-11-10T08:46:30.253Z,10.30
2018-11-10T08:48:57.797Z,10.34
2018-11-10T08:51:25.731Z,10.36
2018-11-10T08:53:53.432Z,10.37
2018-11-10T08:56:20.970Z,10.41
2018-11-10T08:58:48.478Z,10.38
2018-11-10T09:01:15.912Z,10.40
2018-11-10T09:03:44.710Z,10.46
2018-11-10T09:06:12.515Z,10.52
2018-11-10T09:08:40.334Z,10.53
2018-11-10T09:11:08.057Z,10.50
2018-11-10T09:13:35.965Z,10.61
2018-11-10T09:16:03.891Z,10.66
2018-11-10T09:18:31.743Z,10.74
2018-11-10T09:20:59.688Z,10.88
2018-11-10T09:23:27.475Z,11.10
2018-11-10T09:25:55.239Z,11.32
2018-11-10T09:28:22.989Z,11.49
2018-11-10T09:30:50.640Z,11.69
2018-11-10T09:33:18.195Z,11.86
2018-11-10T09:35:45.721Z,11.96
2018-11-10T09:38:13.439Z,12.06
2018-11-10T09:40:41.015Z,12.12
2018-11-10T09:43:08.648Z,12.36
2018-11-10T09:45:36.189Z,12.49
2018-11-10T09:48:03.713Z,12.52
2018-11-10T09:50:31.536Z,12.58
2018-11-10T09:52:59.299Z,12.56
2018-11-10T09:55:27.167Z,12.69
2018-11-10T09:57:55.104Z,12.91
2018-11-10T10:00:22.890Z,13.07
2018-11-10T10:02:51.090Z,13.17
2018-11-10T10:05:18.286Z,13.32
2018-11-10T10:07:46.151Z,13.51
2018-11-10T10:10:15.410Z,13.69
2018-11-10T10:12:43.478Z,13.92
2018-11-10T10:15:13.710Z,14.14
2018-11-10T10:17:42.078Z,14.37
2018-11-10T10:20:12.346Z,14.46
2018-11-10T10:22:39.812Z,14.66
2018-11-10T10:25:08.987Z,14.94
2018-11-10T10:27:36.773Z,15.10
2018-11-10T10:30:06.741Z,14.90
2018-11-10T10:32:34.233Z,14.92
2018-11-10T10:35:01.861Z,14.90
2018-11-10T10:37:29.265Z,14.84
2018-11-10T10:39:57.173Z,14.74
2018-11-10T10:42:24.805Z,14.79
2018-11-10T10:44:52.223Z,14.94
2018-11-10T10:47:19.703Z,15.14
2018-11-10T10:49:47.205Z,15.31
2018-11-10T10:52:14.777Z,15.45
2018-11-10T10:54:42.207Z,15.52
2018-11-10T10:57:09.858Z,15.64
2018-11-10T10:59:37.319Z,15.67
2018-11-10T11:02:10.582Z,15.64
2018-11-10T11:04:48.489Z,15.68
2018-11-10T11:07:17.171Z,15.90
2018-11-10T11:09:45.362Z,16.12
2018-11-10T11:12:12.802Z,16.25
2018-11-10T11:14:40.687Z,16.37
2018-11-10T11:17:08.190Z,16.43
2018-11-10T11:19:35.621Z,16.44
2018-11-10T11:22:03.393Z,16.44
2018-11-10T11:24:30.696Z,16.46
2018-11-10T11:26:58.338Z,16.48
2018-11-10T11:29:25.936Z,16.50
2018-11-10T11:31:53.406Z,16.47
2018-11-10T11:34:20.930Z,16.49
2018-11-10T11:36:48.462Z,16.44
2018-11-10T11:39:15.917Z,16.36
2018-11-10T11:41:43.535Z,16.42
2018-11-10T11:44:10.981Z,16.38
2018-11-10T11:46:38.440Z,16.37
2018-11-10T11:49:09.068Z,16.35
2018-11-10T11:51:36.889Z,16.36
2018-11-10T11:54:04.574Z,16.41
2018-11-10T11:56:32.344Z,16.54
2018-11-10T11:58:59.908Z,16.76
2018-11-10T12:01:27.413Z,16.92
2018-11-10T12:03:54.852Z,17.02
2018-11-10T12:06:22.415Z,17.11
2018-11-10T12:08:56.535Z,17.19
2018-11-10T12:11:24.067Z,17.19
2018-11-10T12:13:51.487Z,17.12
2018-11-10T12:16:27.198Z,16.93
2018-11-10T12:18:47.585Z,16.86
2018-11-10T12:21:15.063Z,16.82
2018-11-10T12:23:42.499Z,16.71
2018-11-10T12:26:10.136Z,16.58
2018-11-10T12:28:37.665Z,16.33
2018-11-10T12:31:05.490Z,16.22
2018-11-10T12:33:33.247Z,16.18
2018-11-10T12:36:00.709Z,16.12
2018-11-10T12:38:28.318Z,16.10
2018-11-10T12:40:55.851Z,16.04
2018-11-10T12:43:23.314Z,16.08
2018-11-10T12:45:50.785Z,16.02
2018-11-10T12:48:18.269Z,16.01
2018-11-10T12:50:45.832Z,16.06
2018-11-10T12:53:13.257Z,16.03
2018-11-10T12:55:40.855Z,15.94
2018-11-10T12:58:08.308Z,15.89
2018-11-10T13:00:35.840Z,15.98
2018-11-10T13:03:03.474Z,15.94
2018-11-10T13:05:31.166Z,15.83
2018-11-10T13:07:58.728Z,15.80
2018-11-10T13:10:26.193Z,15.85
2018-11-10T13:12:53.749Z,15.93
2018-11-10T13:15:21.219Z,16.07
2018-11-10T13:17:48.773Z,16.08
2018-11-10T13:20:16.302Z,15.99
2018-11-10T13:22:43.769Z,15.90
2018-11-10T13:25:12.459Z,15.87
2018-11-10T13:27:39.954Z,15.77
2018-11-10T13:30:08.839Z,15.57
2018-11-10T13:32:36.742Z,15.48
2018-11-10T13:35:05.826Z,15.44
2018-11-10T13:37:33.384Z,15.35
2018-11-10T13:40:00.899Z,15.28
2018-11-10T13:42:28.403Z,15.24
2018-11-10T13:44:55.862Z,15.23
2018-11-10T13:47:23.456Z,15.26
2018-11-10T13:49:50.906Z,15.31
2018-11-10T13:52:18.735Z,15.35
2018-11-10T13:54:46.073Z,15.48
2018-11-10T13:57:13.584Z,15.44
2018-11-10T13:59:41.402Z,15.31
2018-11-10T14:02:09.024Z,15.22
2018-11-10T14:04:36.590Z,15.11
2018-11-10T14:07:04.338Z,14.96
2018-11-10T14:09:31.804Z,14.85
2018-11-10T14:11:59.262Z,14.78
2018-11-10T14:14:26.859Z,14.71
2018-11-10T14:16:54.447Z,14.62
2018-11-10T14:19:21.912Z,14.51
2018-11-10T14:21:49.966Z,14.52
2018-11-10T14:24:17.486Z,14.41
2018-11-10T14:26:44.978Z,14.36
2018-11-10T14:29:12.508Z,14.32
2018-11-10T14:31:40.054Z,14.30
2018-11-10T14:34:07.490Z,14.32
2018-11-10T14:36:34.998Z,14.31
2018-11-10T14:39:03.315Z,14.30
2018-11-10T14:41:30.778Z,14.28
2018-11-10T14:43:58.197Z,14.22
2018-11-10T14:46:25.856Z,14.19
2018-11-10T14:48:53.259Z,14.20
2018-11-10T14:51:20.817Z,14.20
2018-11-10T14:53:48.264Z,14.10
2018-11-10T14:56:15.734Z,14.01
2018-11-10T14:58:43.270Z,13.94
2018-11-10T15:01:10.695Z,13.86
2018-11-10T15:03:38.230Z,13.78
2018-11-10T15:06:05.709Z,13.73
2018-11-10T15:08:33.290Z,13.67
2018-11-10T15:11:00.886Z,13.59
2018-11-10T15:13:28.368Z,13.50
2018-11-10T15:15:55.882Z,13.41
2018-11-10T15:18:23.439Z,13.32
2018-11-10T15:20:50.960Z,13.28
2018-11-10T15:23:18.530Z,13.22
2018-11-10T15:25:45.988Z,13.18
2018-11-10T15:28:13.458Z,13.14
2018-11-10T15:30:41.104Z,13.21
2018-11-10T15:33:08.534Z,13.18
2018-11-10T15:35:35.983Z,13.20
2018-11-10T15:38:03.782Z,13.16
2018-11-10T15:40:31.278Z,13.18
2018-11-10T15:42:58.712Z,13.15
2018-11-10T15:45:26.212Z,13.14
2018-11-10T15:47:53.678Z,13.12
2018-11-10T15:50:21.224Z,13.20
2018-11-10T15:52:48.690Z,13.31
2018-11-10T15:55:16.250Z,13.24
2018-11-10T15:57:43.699Z,13.26
2018-11-10T16:00:13.195Z,13.33
2018-11-10T16:02:41.303Z,13.34
2018-11-10T16:05:09.670Z,13.38
2018-11-10T16:07:37.506Z,13.43
2018-11-10T16:10:05.561Z,13.36
2018-11-10T16:12:33.119Z,13.36
2018-11-10T16:15:00.773Z,13.35
2018-11-10T16:17:28.302Z,13.39
2018-11-10T16:19:55.859Z,13.46
2018-11-10T16:22:23.388Z,13.46
2018-11-10T16:24:51.299Z,13.45
2018-11-10T16:27:19.057Z,13.36
2018-11-10T16:29:46.797Z,13.30
2018-11-10T16:32:14.401Z,13.19
2018-11-10T16:34:41.843Z,13.14
2018-11-10T16:37:09.626Z,13.06
2018-11-10T16:39:37.069Z,13.00
2018-11-10T16:42:05.304Z,13.05
2018-11-10T16:44:32.854Z,13.02
2018-11-10T16:47:00.394Z,13.00
2018-11-10T16:49:27.916Z,12.93
2018-11-10T16:51:55.725Z,12.89
2018-11-10T16:54:23.231Z,12.90
2018-11-10T16:56:50.777Z,12.89
2018-11-10T16:59:18.243Z,12.97
2018-11-10T17:01:45.951Z,13.03
2018-11-10T17:04:13.785Z,13.09
2018-11-10T17:06:41.377Z,13.10
2018-11-10T17:09:10.842Z,13.07
2018-11-10T17:11:38.444Z,13.14
2018-11-10T17:14:06.618Z,13.16
2018-11-10T17:16:34.354Z,13.18
2018-11-10T17:19:01.980Z,13.10
2018-11-10T17:21:29.531Z,13.04
2018-11-10T17:23:56.984Z,12.91
2018-11-10T17:26:24.574Z,12.90
2018-11-10T17:28:52.044Z,12.79
2018-11-10T17:31:19.694Z,12.84
2018-11-10T17:33:47.152Z,12.96
2018-11-10T17:36:14.674Z,12.90
2018-11-10T17:38:42.296Z,13.01
2018-11-10T17:41:09.810Z,13.03
2018-11-10T17:43:37.282Z,12.98
2018-11-10T17:46:05.528Z,13.01
2018-11-10T17:48:33.029Z,13.02
2018-11-10T17:51:00.502Z,13.00
2018-11-10T17:53:28.249Z,13.00
2018-11-10T17:55:55.734Z,13.04
2018-11-10T17:58:23.382Z,13.15
2018-11-10T18:00:50.826Z,13.16
2018-11-10T18:03:18.228Z,13.16
2018-11-10T18:05:45.738Z,13.17
2018-11-10T18:08:13.216Z,13.10
2018-11-10T18:10:40.636Z,13.07
2018-11-10T18:13:08.295Z,13.08
2018-11-10T18:15:35.698Z,13.09
2018-11-10T18:18:03.209Z,13.06
2018-11-10T18:20:30.738Z,13.03
2018-11-10T18:22:58.205Z,13.05
2018-11-10T18:25:25.925Z,13.08
2018-11-10T18:27:53.374Z,13.14
2018-11-10T18:30:20.806Z,13.13
2018-11-10T18:32:48.344Z,13.11
2018-11-10T18:35:15.858Z,13.11
2018-11-10T18:37:43.411Z,13.09
2018-11-10T18:40:11.059Z,13.07
2018-11-10T18:42:38.549Z,13.05
2018-11-10T18:45:07.118Z,13.06
2018-11-10T18:47:34.662Z,13.07
2018-11-10T18:50:02.306Z,13.05
2018-11-10T18:52:30.023Z,13.06
2018-11-10T18:54:57.452Z,13.08
2018-11-10T18:57:25.136Z,13.04
2018-11-10T18:59:52.686Z,12.99
2018-11-10T19:02:20.204Z,12.95
2018-11-10T19:04:48.061Z,12.81
2018-11-10T19:07:15.507Z,12.72
2018-11-10T19:09:43.125Z,12.59
2018-11-10T19:12:10.826Z,12.51
2018-11-10T19:14:38.368Z,12.41
2018-11-10T19:17:05.894Z,12.40
2018-11-10T19:19:33.578Z,12.46
2018-11-10T19:22:01.119Z,12.43
2018-11-10T19:24:28.794Z,12.39
2018-11-10T19:26:56.326Z,12.38
2018-11-10T19:29:23.889Z,12.38
2018-11-10T19:31:51.497Z,12.43
2018-11-10T19:34:18.978Z,12.43
2018-11-10T19:36:46.536Z,12.44
2018-11-10T19:39:14.057Z,12.42
2018-11-10T19:41:41.874Z,12.49
2018-11-10T19:44:09.987Z,12.51
2018-11-10T19:46:38.350Z,12.67
2018-11-10T19:49:05.959Z,12.68
2018-11-10T19:51:33.927Z,12.64
2018-11-10T19:54:01.249Z,12.80
2018-11-10T19:56:28.937Z,12.81
2018-11-10T19:58:56.365Z,12.78
2018-11-10T20:01:23.826Z,12.76
2018-11-10T20:03:52.059Z,12.89
2018-11-10T20:06:19.543Z,12.91
2018-11-10T20:08:47.088Z,12.93
2018-11-10T20:11:14.714Z,12.92
2018-11-10T20:13:42.352Z,12.94
2018-11-10T20:16:09.891Z,12.95
2018-11-10T20:18:37.407Z,13.09
2018-11-10T20:21:04.919Z,13.10
2018-11-10T20:23:32.349Z,13.19
2018-11-10T20:25:59.983Z,13.27
2018-11-10T20:28:27.639Z,13.42
2018-11-10T20:30:55.223Z,13.52
2018-11-10T20:33:22.815Z,13.64
2018-11-10T20:35:50.365Z,13.63
2018-11-10T20:38:17.842Z,13.62
2018-11-10T20:40:45.509Z,13.66
2018-11-10T20:43:13.061Z,13.63
2018-11-10T20:45:40.601Z,13.56
2018-11-10T20:48:08.125Z,13.63
2018-11-10T20:50:35.927Z,13.65
2018-11-10T20:53:03.471Z,13.60
2018-11-10T20:55:31.349Z,13.59
2018-11-10T20:57:58.927Z,13.46
2018-11-10T21:00:26.554Z,13.33
2018-11-10T21:02:54.186Z,13.23
2018-11-10T21:05:21.691Z,13.15
2018-11-10T21:07:49.239Z,13.12
2018-11-10T21:10:18.329Z,13.17
2018-11-10T21:12:46.651Z,13.10
2018-11-10T21:15:14.911Z,13.06
2018-11-10T21:17:42.748Z,13.02
2018-11-10T21:20:11.089Z,13.04
2018-11-10T21:22:38.622Z,13.02
2018-11-10T21:25:07.944Z,13.02
2018-11-10T21:27:35.564Z,13.06
2018-11-10T21:30:03.651Z,13.15
2018-11-10T21:32:31.312Z,13.14
2018-11-10T21:34:58.799Z,13.13
2018-11-10T21:37:26.414Z,13.08
2018-11-10T21:39:53.956Z,13.09
2018-11-10T21:42:21.406Z,13.10
2018-11-10T21:44:48.914Z,13.10
2018-11-10T21:47:16.518Z,13.11
2018-11-10T21:49:44.022Z,13.12
2018-11-10T21:52:11.483Z,13.18
2018-11-10T21:54:39.066Z,13.12
2018-11-10T21:57:06.612Z,13.10
2018-11-10T21:59:34.104Z,13.09
2018-11-10T22:02:01.873Z,13.08
2018-11-10T22:04:29.325Z,13.04
2018-11-10T22:06:56.869Z,13.04
2018-11-10T22:09:24.886Z,13.09
2018-11-10T22:11:52.279Z,13.10
2018-11-10T22:14:19.752Z,13.11
2018-11-10T22:16:47.401Z,13.08
2018-11-10T22:19:15.822Z,13.16
2018-11-10T22:21:43.272Z,13.13
2018-11-10T22:24:10.823Z,13.09
2018-11-10T22:26:38.310Z,13.06
2018-11-10T22:29:05.754Z,13.02
2018-11-10T22:31:33.499Z,13.00
2018-11-10T22:34:00.967Z,12.98
2018-11-10T22:36:28.504Z,12.96
2018-11-10T22:38:56.000Z,13.00
2018-11-10T22:41:23.548Z,13.06
2018-11-10T22:43:51.138Z,13.04
2018-11-10T22:46:18.649Z,12.99
2018-11-10T22:48:46.166Z,12.95
2018-11-10T22:51:13.630Z,12.91
2018-11-10T22:53:41.225Z,12.87
2018-11-10T22:56:08.846Z,12.85
2018-11-10T22:58:36.515Z,12.81
2018-11-10T23:01:06.809Z,12.75
2018-11-10T23:03:35.283Z,12.76
2018-11-10T23:06:10.166Z,12.75
2018-11-10T23:08:37.806Z,12.74
2018-11-10T23:11:05.273Z,12.75
2018-11-10T23:13:33.500Z,12.73
2018-11-10T23:16:01.020Z,12.71
2018-11-10T23:18:28.513Z,12.75
2018-11-10T23:20:56.022Z,12.85
2018-11-10T23:23:23.528Z,12.91
2018-11-10T23:25:50.983Z,12.92
2018-11-10T23:28:18.688Z,12.99
2018-11-10T23:30:46.271Z,13.02
2018-11-10T23:33:13.766Z,12.99
2018-11-10T23:35:41.337Z,12.99
2018-11-10T23:38:08.802Z,12.90
2018-11-10T23:40:36.421Z,12.88
2018-11-10T23:43:04.029Z,12.86
2018-11-10T23:45:31.485Z,12.79
2018-11-10T23:47:58.985Z,12.77
2018-11-10T23:50:26.581Z,12.75
2018-11-10T23:52:54.360Z,12.77
2018-11-10T23:55:21.939Z,12.81
2018-11-10T23:57:49.414Z,13.01
